sensor_id;sensor_type;location;lat;lon;timestamp;pressure;altitude;pressure_sealevel;temperature;humidity
6694;BME280;3384;42.628;23.380;2022-08-02T00:00:00;94116.81;;;20.49;95.75
6694;BME280;3384;42.628;23.380;2022-08-02T00:02:27;94103.81;;;20.65;92.53
6694;BME280;3384;42.628;23.380;2022-08-02T00:04:54;94111.06;;;20.80;88.50
6694;BME280;3384;42.628;23.380;2022-08-02T00:07:22;94110.69;;;20.81;88.61
6694;BME280;3384;42.628;23.380;2022-08-02T00:09:49;94103.88;;;20.68;89.63
6694;BME280;3384;42.628;23.380;2022-08-02T00:12:16;94125.16;;;20.85;83.90
6694;BME280;3384;42.628;23.380;2022-08-02T00:14:43;94119.13;;;20.99;85.47
6694;BME280;3384;42.628;23.380;2022-08-02T00:17:10;94102.31;;;20.93;87.85
6694;BME280;3384;42.628;23.380;2022-08-02T00:19:36;94095.72;;;20.68;90.91
6694;BME280;3384;42.628;23.380;2022-08-02T00:22:03;94102.97;;;20.61;92.57
6694;BME280;3384;42.628;23.380;2022-08-02T00:24:32;94099.31;;;20.50;95.95
6694;BME280;3384;42.628;23.380;2022-08-02T00:26:59;94102.22;;;20.38;99.37
6694;BME280;3384;42.628;23.380;2022-08-02T00:29:28;94101.38;;;20.34;99.14
6694;BME280;3384;42.628;23.380;2022-08-02T00:31:55;94104.72;;;20.24;96.21
6694;BME280;3384;42.628;23.380;2022-08-02T00:34:22;94097.09;;;20.33;93.88
6694;BME280;3384;42.628;23.380;2022-08-02T00:36:48;94105.88;;;20.23;94.22
6694;BME280;3384;42.628;23.380;2022-08-02T00:39:16;94103.59;;;20.25;94.48
6694;BME280;3384;42.628;23.380;2022-08-02T00:41:49;94098.38;;;20.16;95.34
6694;BME280;3384;42.628;23.380;2022-08-02T00:44:17;94096.03;;;20.15;94.33
6694;BME280;3384;42.628;23.380;2022-08-02T00:46:45;94088.81;;;20.03;96.01
6694;BME280;3384;42.628;23.380;2022-08-02T00:49:12;94091.09;;;20.01;96.22
6694;BME280;3384;42.628;23.380;2022-08-02T00:51:40;94096.53;;;20.01;95.41
6694;BME280;3384;42.628;23.380;2022-08-02T00:54:07;94097.94;;;19.92;95.88
6694;BME280;3384;42.628;23.380;2022-08-02T00:56:34;94085.63;;;19.79;96.05
6694;BME280;3384;42.628;23.380;2022-08-02T00:59:03;94092.81;;;19.68;95.60
6694;BME280;3384;42.628;23.380;2022-08-02T01:01:30;94089.97;;;19.61;94.17
6694;BME280;3384;42.628;23.380;2022-08-02T01:04:08;94087.94;;;19.77;95.15
6694;BME280;3384;42.628;23.380;2022-08-02T01:06:36;94100.00;;;19.19;98.34
6694;BME280;3384;42.628;23.380;2022-08-02T01:09:04;94089.56;;;19.21;99.84
6694;BME280;3384;42.628;23.380;2022-08-02T01:11:32;94090.78;;;19.23;100.00
6694;BME280;3384;42.628;23.380;2022-08-02T01:14:04;94089.47;;;18.79;100.00
6694;BME280;3384;42.628;23.380;2022-08-02T01:16:36;94091.72;;;18.92;100.00
6694;BME280;3384;42.628;23.380;2022-08-02T01:19:12;94094.72;;;18.72;100.00
6694;BME280;3384;42.628;23.380;2022-08-02T01:21:53;94094.91;;;17.82;100.00
6694;BME280;3384;42.628;23.380;2022-08-02T01:24:51;94104.31;;;17.88;100.00
6694;BME280;3384;42.628;23.380;2022-08-02T01:27:31;94100.50;;;18.20;100.00
6694;BME280;3384;42.628;23.380;2022-08-02T01:30:02;94104.13;;;18.59;100.00
6694;BME280;3384;42.628;23.380;2022-08-02T01:32:34;94105.31;;;18.11;100.00
6694;BME280;3384;42.628;23.380;2022-08-02T01:35:08;94110.31;;;18.25;100.00
6694;BME280;3384;42.628;23.380;2022-08-02T01:37:39;94102.34;;;18.16;100.00
6694;BME280;3384;42.628;23.380;2022-08-02T01:40:11;94107.94;;;18.39;100.00
6694;BME280;3384;42.628;23.380;2022-08-02T01:42:42;94099.97;;;18.15;100.00
6694;BME280;3384;42.628;23.380;2022-08-02T01:45:13;94105.59;;;18.06;100.00
6694;BME280;3384;42.628;23.380;2022-08-02T01:47:43;94100.16;;;18.06;100.00
6694;BME280;3384;42.628;23.380;2022-08-02T01:50:13;94109.06;;;17.91;100.00
6694;BME280;3384;42.628;23.380;2022-08-02T01:52:44;94101.78;;;18.11;100.00
6694;BME280;3384;42.628;23.380;2022-08-02T01:55:15;94103.63;;;18.22;100.00
6694;BME280;3384;42.628;23.380;2022-08-02T01:57:48;94110.19;;;18.21;100.00
6694;BME280;3384;42.628;23.380;2022-08-02T02:00:18;94105.59;;;18.06;100.00
6694;BME280;3384;42.628;23.380;2022-08-02T02:02:48;94108.47;;;18.29;100.00
6694;BME280;3384;42.628;23.380;2022-08-02T02:05:18;94107.31;;;17.83;100.00
6694;BME280;3384;42.628;23.380;2022-08-02T02:07:51;94104.09;;;17.93;100.00
6694;BME280;3384;42.628;23.380;2022-08-02T02:10:23;94115.94;;;17.58;100.00
6694;BME280;3384;42.628;23.380;2022-08-02T02:12:51;94096.63;;;17.59;100.00
6694;BME280;3384;42.628;23.380;2022-08-02T02:15:22;94100.63;;;17.38;100.00
6694;BME280;3384;42.628;23.380;2022-08-02T02:17:50;94109.34;;;17.43;100.00
6694;BME280;3384;42.628;23.380;2022-08-02T02:20:19;94095.16;;;17.77;100.00
6694;BME280;3384;42.628;23.380;2022-08-02T02:22:47;94115.38;;;17.80;100.00
6694;BME280;3384;42.628;23.380;2022-08-02T02:25:16;94103.03;;;18.13;100.00
6694;BME280;3384;42.628;23.380;2022-08-02T02:27:47;94110.50;;;17.58;100.00
6694;BME280;3384;42.628;23.380;2022-08-02T02:30:16;94107.81;;;17.30;100.00
6694;BME280;3384;42.628;23.380;2022-08-02T02:32:46;94121.84;;;17.48;100.00
6694;BME280;3384;42.628;23.380;2022-08-02T02:35:17;94104.50;;;17.64;100.00
6694;BME280;3384;42.628;23.380;2022-08-02T02:37:45;94109.81;;;17.61;100.00
6694;BME280;3384;42.628;23.380;2022-08-02T02:40:14;94082.81;;;17.49;100.00
6694;BME280;3384;42.628;23.380;2022-08-02T02:42:43;94095.38;;;17.29;100.00
6694;BME280;3384;42.628;23.380;2022-08-02T02:45:11;94102.56;;;17.10;100.00
6694;BME280;3384;42.628;23.380;2022-08-02T02:47:39;94102.97;;;16.96;100.00
6694;BME280;3384;42.628;23.380;2022-08-02T02:50:09;94110.28;;;16.96;100.00
6694;BME280;3384;42.628;23.380;2022-08-02T02:52:38;94111.56;;;16.86;100.00
6694;BME280;3384;42.628;23.380;2022-08-02T02:55:08;94099.63;;;17.15;100.00
6694;BME280;3384;42.628;23.380;2022-08-02T02:57:36;94103.50;;;17.02;100.00
6694;BME280;3384;42.628;23.380;2022-08-02T03:00:05;94099.88;;;17.37;100.00
6694;BME280;3384;42.628;23.380;2022-08-02T03:02:33;94095.13;;;17.62;100.00
6694;BME280;3384;42.628;23.380;2022-08-02T03:05:03;94109.03;;;17.60;100.00
6694;BME280;3384;42.628;23.380;2022-08-02T03:07:33;94105.09;;;17.58;100.00
6694;BME280;3384;42.628;23.380;2022-08-02T03:10:02;94112.41;;;17.42;100.00
6694;BME280;3384;42.628;23.380;2022-08-02T03:12:30;94116.56;;;17.39;100.00
6694;BME280;3384;42.628;23.380;2022-08-02T03:14:57;94106.75;;;17.07;100.00
6694;BME280;3384;42.628;23.380;2022-08-02T03:17:24;94107.56;;;17.08;100.00
6694;BME280;3384;42.628;23.380;2022-08-02T03:19:51;94108.69;;;17.77;100.00
6694;BME280;3384;42.628;23.380;2022-08-02T03:22:18;94108.25;;;17.60;100.00
6694;BME280;3384;42.628;23.380;2022-08-02T03:24:46;94112.56;;;17.21;100.00
6694;BME280;3384;42.628;23.380;2022-08-02T03:27:13;94104.41;;;17.33;100.00
6694;BME280;3384;42.628;23.380;2022-08-02T03:29:40;94121.31;;;17.85;100.00
6694;BME280;3384;42.628;23.380;2022-08-02T03:32:07;94095.78;;;17.16;100.00
6694;BME280;3384;42.628;23.380;2022-08-02T03:34:34;94098.00;;;17.26;100.00
6694;BME280;3384;42.628;23.380;2022-08-02T03:37:01;94093.28;;;17.23;100.00
6694;BME280;3384;42.628;23.380;2022-08-02T03:39:28;94092.31;;;17.43;100.00
6694;BME280;3384;42.628;23.380;2022-08-02T03:41:59;94102.97;;;17.24;100.00
6694;BME280;3384;42.628;23.380;2022-08-02T03:44:27;94104.09;;;17.50;100.00
6694;BME280;3384;42.628;23.380;2022-08-02T03:46:54;94118.47;;;17.11;100.00
6694;BME280;3384;42.628;23.380;2022-08-02T03:49:22;94114.47;;;17.21;100.00
6694;BME280;3384;42.628;23.380;2022-08-02T03:51:49;94107.81;;;17.58;100.00
6694;BME280;3384;42.628;23.380;2022-08-02T03:54:17;94108.69;;;17.34;100.00
6694;BME280;3384;42.628;23.380;2022-08-02T03:56:44;94111.94;;;17.12;100.00
6694;BME280;3384;42.628;23.380;2022-08-02T03:59:13;94139.16;;;17.31;100.00
6694;BME280;3384;42.628;23.380;2022-08-02T04:01:41;94126.69;;;17.54;100.00
6694;BME280;3384;42.628;23.380;2022-08-02T04:04:08;94127.84;;;17.41;100.00
6694;BME280;3384;42.628;23.380;2022-08-02T04:06:35;94131.38;;;17.42;100.00
6694;BME280;3384;42.628;23.380;2022-08-02T04:09:03;94122.97;;;17.19;100.00
6694;BME280;3384;42.628;23.380;2022-08-02T04:11:30;94142.41;;;17.37;100.00
6694;BME280;3384;42.628;23.380;2022-08-02T04:13:57;94137.34;;;17.47;100.00
6694;BME280;3384;42.628;23.380;2022-08-02T04:16:29;94145.66;;;17.54;100.00
6694;BME280;3384;42.628;23.380;2022-08-02T04:19:00;94154.78;;;17.77;100.00
6694;BME280;3384;42.628;23.380;2022-08-02T04:21:33;94154.13;;;18.11;100.00
6694;BME280;3384;42.628;23.380;2022-08-02T04:24:02;94152.78;;;17.90;100.00
6694;BME280;3384;42.628;23.380;2022-08-02T04:26:31;94157.34;;;18.01;100.00
6694;BME280;3384;42.628;23.380;2022-08-02T04:29:00;94161.38;;;18.07;100.00
6694;BME280;3384;42.628;23.380;2022-08-02T04:31:29;94161.84;;;18.25;100.00
6694;BME280;3384;42.628;23.380;2022-08-02T04:33:57;94157.28;;;18.29;100.00
6694;BME280;3384;42.628;23.380;2022-08-02T04:40:29;94148.66;;;18.54;100.00
6694;BME280;3384;42.628;23.380;2022-08-02T04:42:56;94142.84;;;18.56;100.00
6694;BME280;3384;42.628;23.380;2022-08-02T04:45:23;94157.13;;;18.68;100.00
6694;BME280;3384;42.628;23.380;2022-08-02T04:47:52;94138.81;;;19.00;100.00
6694;BME280;3384;42.628;23.380;2022-08-02T04:50:19;94144.47;;;19.11;100.00
6694;BME280;3384;42.628;23.380;2022-08-02T04:52:46;94144.69;;;19.21;100.00
6694;BME280;3384;42.628;23.380;2022-08-02T04:55:12;94145.34;;;19.15;100.00
6694;BME280;3384;42.628;23.380;2022-08-02T04:57:39;94162.22;;;19.24;100.00
6694;BME280;3384;42.628;23.380;2022-08-02T05:00:27;94169.81;;;19.34;100.00
6694;BME280;3384;42.628;23.380;2022-08-02T05:02:56;94163.19;;;19.50;100.00
6694;BME280;3384;42.628;23.380;2022-08-02T05:05:24;94137.28;;;19.37;100.00
6694;BME280;3384;42.628;23.380;2022-08-02T05:07:51;94157.75;;;19.16;100.00
6694;BME280;3384;42.628;23.380;2022-08-02T05:10:18;94148.97;;;19.38;100.00
6694;BME280;3384;42.628;23.380;2022-08-02T05:12:45;94164.75;;;19.51;100.00
6694;BME280;3384;42.628;23.380;2022-08-02T05:15:13;94162.94;;;19.78;100.00
6694;BME280;3384;42.628;23.380;2022-08-02T05:17:43;94154.31;;;19.34;100.00
6694;BME280;3384;42.628;23.380;2022-08-02T05:20:11;94161.88;;;19.63;100.00
6694;BME280;3384;42.628;23.380;2022-08-02T05:22:54;94164.72;;;19.70;100.00
6694;BME280;3384;42.628;23.380;2022-08-02T05:25:21;94168.41;;;19.40;100.00
6694;BME280;3384;42.628;23.380;2022-08-02T05:27:48;94162.69;;;19.64;100.00
6694;BME280;3384;42.628;23.380;2022-08-02T05:30:15;94165.53;;;19.71;100.00
6694;BME280;3384;42.628;23.380;2022-08-02T05:32:43;94186.00;;;19.84;100.00
6694;BME280;3384;42.628;23.380;2022-08-02T05:35:11;94179.34;;;20.23;96.13
6694;BME280;3384;42.628;23.380;2022-08-02T05:37:38;94158.13;;;19.90;100.00
6694;BME280;3384;42.628;23.380;2022-08-02T05:40:06;94171.16;;;20.00;100.00
6694;BME280;3384;42.628;23.380;2022-08-02T05:42:34;94186.66;;;20.00;100.00
6694;BME280;3384;42.628;23.380;2022-08-02T05:45:02;94164.50;;;19.98;100.00
6694;BME280;3384;42.628;23.380;2022-08-02T05:47:29;94184.53;;;20.09;100.00
6694;BME280;3384;42.628;23.380;2022-08-02T05:49:55;94180.09;;;20.01;100.00
6694;BME280;3384;42.628;23.380;2022-08-02T05:52:25;94177.25;;;19.94;100.00
6694;BME280;3384;42.628;23.380;2022-08-02T05:54:56;94176.94;;;20.18;100.00
6694;BME280;3384;42.628;23.380;2022-08-02T05:57:36;94174.94;;;20.15;100.00
6694;BME280;3384;42.628;23.380;2022-08-02T06:00:09;94172.59;;;20.36;100.00
6694;BME280;3384;42.628;23.380;2022-08-02T06:02:49;94181.03;;;20.53;100.00
6694;BME280;3384;42.628;23.380;2022-08-02T06:05:20;94188.44;;;21.01;95.73
6694;BME280;3384;42.628;23.380;2022-08-02T06:07:49;94188.41;;;20.98;90.41
6694;BME280;3384;42.628;23.380;2022-08-02T06:10:19;94190.63;;;20.92;86.66
6694;BME280;3384;42.628;23.380;2022-08-02T06:12:48;94189.75;;;21.37;81.50
6694;BME280;3384;42.628;23.380;2022-08-02T06:15:17;94189.56;;;21.52;81.53
6694;BME280;3384;42.628;23.380;2022-08-02T06:17:45;94195.31;;;21.74;79.36
6694;BME280;3384;42.628;23.380;2022-08-02T06:20:13;94204.09;;;21.60;77.28
6694;BME280;3384;42.628;23.380;2022-08-02T06:22:41;94216.81;;;21.49;72.85
6694;BME280;3384;42.628;23.380;2022-08-02T06:25:11;94189.72;;;21.63;73.40
6694;BME280;3384;42.628;23.380;2022-08-02T06:27:38;94206.19;;;21.44;72.73
6694;BME280;3384;42.628;23.380;2022-08-02T06:30:07;94199.59;;;21.45;75.04
6694;BME280;3384;42.628;23.380;2022-08-02T06:32:34;94206.69;;;21.79;73.29
6694;BME280;3384;42.628;23.380;2022-08-02T06:35:03;94184.16;;;21.86;72.99
6694;BME280;3384;42.628;23.380;2022-08-02T06:37:36;94203.63;;;21.84;71.07
6694;BME280;3384;42.628;23.380;2022-08-02T06:40:07;94226.47;;;22.06;70.98
6694;BME280;3384;42.628;23.380;2022-08-02T06:42:50;94225.63;;;21.98;71.12
6694;BME280;3384;42.628;23.380;2022-08-02T06:45:19;94210.03;;;21.69;72.68
6694;BME280;3384;42.628;23.380;2022-08-02T06:47:46;94223.22;;;21.93;71.28
6694;BME280;3384;42.628;23.380;2022-08-02T06:50:18;94217.81;;;21.67;71.48
6694;BME280;3384;42.628;23.380;2022-08-02T06:52:45;94233.50;;;21.74;71.89
6694;BME280;3384;42.628;23.380;2022-08-02T06:55:12;94196.31;;;21.92;71.65
6694;BME280;3384;42.628;23.380;2022-08-02T06:57:40;94193.19;;;21.90;72.75
6694;BME280;3384;42.628;23.380;2022-08-02T07:00:08;94222.25;;;22.08;72.30
6694;BME280;3384;42.628;23.380;2022-08-02T07:02:36;94226.78;;;21.97;72.75
6694;BME280;3384;42.628;23.380;2022-08-02T07:05:04;94193.72;;;22.02;71.63
6694;BME280;3384;42.628;23.380;2022-08-02T07:07:32;94214.00;;;22.05;72.49
6694;BME280;3384;42.628;23.380;2022-08-02T07:09:59;94198.38;;;22.02;71.27
6694;BME280;3384;42.628;23.380;2022-08-02T07:12:27;94193.34;;;22.07;71.48
6694;BME280;3384;42.628;23.380;2022-08-02T07:14:56;94197.81;;;22.22;71.60
6694;BME280;3384;42.628;23.380;2022-08-02T07:17:23;94199.34;;;22.20;72.45
6694;BME280;3384;42.628;23.380;2022-08-02T07:19:50;94207.50;;;22.16;71.58
6694;BME280;3384;42.628;23.380;2022-08-02T07:22:16;94217.47;;;22.35;70.08
6694;BME280;3384;42.628;23.380;2022-08-02T07:24:47;94211.19;;;22.31;69.62
6694;BME280;3384;42.628;23.380;2022-08-02T07:27:14;94218.19;;;22.32;70.52
6694;BME280;3384;42.628;23.380;2022-08-02T07:29:41;94197.53;;;22.34;71.35
6694;BME280;3384;42.628;23.380;2022-08-02T07:32:09;94213.69;;;22.46;71.99
6694;BME280;3384;42.628;23.380;2022-08-02T07:34:36;94195.47;;;22.57;70.85
6694;BME280;3384;42.628;23.380;2022-08-02T07:37:03;94214.22;;;22.59;70.43
6694;BME280;3384;42.628;23.380;2022-08-02T07:39:30;94192.00;;;22.60;70.92
6694;BME280;3384;42.628;23.380;2022-08-02T07:41:57;94193.75;;;22.46;71.35
6694;BME280;3384;42.628;23.380;2022-08-02T07:44:24;94199.50;;;22.70;70.07
6694;BME280;3384;42.628;23.380;2022-08-02T07:46:51;94196.03;;;22.77;70.33
6694;BME280;3384;42.628;23.380;2022-08-02T07:49:19;94194.94;;;22.88;70.91
6694;BME280;3384;42.628;23.380;2022-08-02T07:51:46;94200.75;;;22.80;71.99
6694;BME280;3384;42.628;23.380;2022-08-02T07:54:13;94195.88;;;23.10;70.80
6694;BME280;3384;42.628;23.380;2022-08-02T07:56:39;94193.19;;;23.13;70.21
6694;BME280;3384;42.628;23.380;2022-08-02T07:59:06;94212.44;;;23.27;69.48
6694;BME280;3384;42.628;23.380;2022-08-02T08:01:34;94194.31;;;23.05;68.76
6694;BME280;3384;42.628;23.380;2022-08-02T08:04:01;94203.53;;;22.90;69.88
6694;BME280;3384;42.628;23.380;2022-08-02T08:06:30;94196.00;;;23.24;68.68
6694;BME280;3384;42.628;23.380;2022-08-02T08:08:56;94208.94;;;23.30;69.44
6694;BME280;3384;42.628;23.380;2022-08-02T08:11:24;94206.03;;;23.09;68.76
6694;BME280;3384;42.628;23.380;2022-08-02T08:13:51;94193.13;;;23.10;68.55
6694;BME280;3384;42.628;23.380;2022-08-02T08:16:18;94192.50;;;23.23;68.14
6694;BME280;3384;42.628;23.380;2022-08-02T08:18:44;94194.19;;;23.45;68.08
6694;BME280;3384;42.628;23.380;2022-08-02T08:21:11;94191.88;;;23.51;69.16
6694;BME280;3384;42.628;23.380;2022-08-02T08:23:39;94191.91;;;23.54;68.31
6694;BME280;3384;42.628;23.380;2022-08-02T08:26:06;94199.03;;;23.73;67.74
6694;BME280;3384;42.628;23.380;2022-08-02T08:28:33;94193.75;;;23.40;68.48
6694;BME280;3384;42.628;23.380;2022-08-02T08:31:01;94197.59;;;23.25;67.71
6694;BME280;3384;42.628;23.380;2022-08-02T08:33:27;94191.25;;;23.17;68.53
6694;BME280;3384;42.628;23.380;2022-08-02T08:35:55;94199.59;;;23.38;67.44
6694;BME280;3384;42.628;23.380;2022-08-02T08:38:22;94188.25;;;23.33;67.81
6694;BME280;3384;42.628;23.380;2022-08-02T08:40:50;94196.28;;;23.76;67.82
6694;BME280;3384;42.628;23.380;2022-08-02T08:43:17;94194.69;;;23.68;67.87
6694;BME280;3384;42.628;23.380;2022-08-02T08:45:45;94192.03;;;23.86;65.94
6694;BME280;3384;42.628;23.380;2022-08-02T08:48:14;94196.69;;;23.75;64.98
6694;BME280;3384;42.628;23.380;2022-08-02T08:50:46;94192.66;;;23.55;64.62
6694;BME280;3384;42.628;23.380;2022-08-02T08:53:16;94191.16;;;23.64;63.63
6694;BME280;3384;42.628;23.380;2022-08-02T08:55:44;94183.00;;;23.71;62.98
6694;BME280;3384;42.628;23.380;2022-08-02T08:58:12;94195.56;;;23.86;62.56
6694;BME280;3384;42.628;23.380;2022-08-02T09:00:40;94195.16;;;23.81;63.36
6694;BME280;3384;42.628;23.380;2022-08-02T09:03:07;94187.16;;;23.44;64.82
6694;BME280;3384;42.628;23.380;2022-08-02T09:05:35;94186.47;;;23.61;66.10
6694;BME280;3384;42.628;23.380;2022-08-02T09:08:02;94186.59;;;23.93;64.77
6694;BME280;3384;42.628;23.380;2022-08-02T09:10:35;94189.03;;;24.23;64.82
6694;BME280;3384;42.628;23.380;2022-08-02T09:13:06;94193.78;;;24.29;64.56
6694;BME280;3384;42.628;23.380;2022-08-02T09:15:35;94193.34;;;24.10;63.49
6694;BME280;3384;42.628;23.380;2022-08-02T09:18:03;94202.56;;;23.77;64.32
6694;BME280;3384;42.628;23.380;2022-08-02T09:20:31;94179.94;;;23.90;61.76
6694;BME280;3384;42.628;23.380;2022-08-02T09:23:06;94170.69;;;24.20;60.37
6694;BME280;3384;42.628;23.380;2022-08-02T09:25:33;94175.97;;;23.77;63.58
6694;BME280;3384;42.628;23.380;2022-08-02T09:28:01;94189.84;;;24.20;63.04
6694;BME280;3384;42.628;23.380;2022-08-02T09:30:28;94198.00;;;24.02;63.79
6694;BME280;3384;42.628;23.380;2022-08-02T09:32:57;94181.25;;;24.39;64.26
6694;BME280;3384;42.628;23.380;2022-08-02T09:35:31;94181.25;;;24.32;65.21
6694;BME280;3384;42.628;23.380;2022-08-02T09:38:07;94172.69;;;24.61;65.03
6694;BME280;3384;42.628;23.380;2022-08-02T09:40:35;94179.66;;;24.27;62.52
6694;BME280;3384;42.628;23.380;2022-08-02T09:43:02;94163.63;;;24.26;61.81
6694;BME280;3384;42.628;23.380;2022-08-02T09:45:30;94164.03;;;24.28;62.75
6694;BME280;3384;42.628;23.380;2022-08-02T09:48:00;94190.69;;;24.59;60.96
6694;BME280;3384;42.628;23.380;2022-08-02T09:50:27;94191.47;;;24.49;60.62
6694;BME280;3384;42.628;23.380;2022-08-02T09:52:54;94162.47;;;24.34;62.06
6694;BME280;3384;42.628;23.380;2022-08-02T09:55:22;94165.16;;;24.09;62.22
6694;BME280;3384;42.628;23.380;2022-08-02T09:57:50;94157.78;;;24.48;61.62
6694;BME280;3384;42.628;23.380;2022-08-02T10:00:17;94157.00;;;24.34;60.93
6694;BME280;3384;42.628;23.380;2022-08-02T10:03:08;94162.50;;;24.58;60.68
6694;BME280;3384;42.628;23.380;2022-08-02T10:05:47;94163.28;;;24.48;61.70
6694;BME280;3384;42.628;23.380;2022-08-02T10:08:15;94159.00;;;24.68;61.29
6694;BME280;3384;42.628;23.380;2022-08-02T10:10:42;94158.19;;;24.57;63.03
6694;BME280;3384;42.628;23.380;2022-08-02T10:13:10;94162.94;;;24.67;62.59
6694;BME280;3384;42.628;23.380;2022-08-02T10:15:37;94150.00;;;24.78;62.97
6694;BME280;3384;42.628;23.380;2022-08-02T10:18:05;94152.34;;;24.87;62.71
6694;BME280;3384;42.628;23.380;2022-08-02T10:20:39;94148.00;;;25.21;61.25
6694;BME280;3384;42.628;23.380;2022-08-02T10:23:07;94156.63;;;25.09;60.99
6694;BME280;3384;42.628;23.380;2022-08-02T10:25:36;94163.31;;;25.32;62.42
6694;BME280;3384;42.628;23.380;2022-08-02T10:28:05;94139.75;;;25.42;61.66
6694;BME280;3384;42.628;23.380;2022-08-02T10:30:33;94152.69;;;25.41;62.29
6694;BME280;3384;42.628;23.380;2022-08-02T10:33:02;94142.84;;;25.58;61.14
6694;BME280;3384;42.628;23.380;2022-08-02T10:35:32;94158.13;;;25.66;60.81
6694;BME280;3384;42.628;23.380;2022-08-02T10:38:04;94142.13;;;25.19;62.70
6694;BME280;3384;42.628;23.380;2022-08-02T10:40:42;94158.50;;;25.61;61.50
6694;BME280;3384;42.628;23.380;2022-08-02T10:43:10;94162.47;;;25.53;61.12
6694;BME280;3384;42.628;23.380;2022-08-02T10:45:37;94149.94;;;25.41;61.57
6694;BME280;3384;42.628;23.380;2022-08-02T10:48:07;94149.19;;;25.34;61.91
6694;BME280;3384;42.628;23.380;2022-08-02T10:51:01;94137.69;;;25.74;60.09
6694;BME280;3384;42.628;23.380;2022-08-02T10:53:31;94154.59;;;25.69;59.24
6694;BME280;3384;42.628;23.380;2022-08-02T10:56:00;94137.75;;;25.53;59.70
6694;BME280;3384;42.628;23.380;2022-08-02T10:58:28;94170.25;;;25.68;59.53
6694;BME280;3384;42.628;23.380;2022-08-02T11:00:56;94146.72;;;25.71;59.14
6694;BME280;3384;42.628;23.380;2022-08-02T11:03:34;94138.38;;;25.95;58.40
6694;BME280;3384;42.628;23.380;2022-08-02T11:06:05;94139.38;;;25.36;60.74
6694;BME280;3384;42.628;23.380;2022-08-02T11:08:34;94139.75;;;25.24;61.80
6694;BME280;3384;42.628;23.380;2022-08-02T11:11:15;94139.31;;;25.57;61.92
6694;BME280;3384;42.628;23.380;2022-08-02T11:14:00;94133.41;;;25.62;60.28
6694;BME280;3384;42.628;23.380;2022-08-02T11:20:17;94140.03;;;25.79;60.32
6694;BME280;3384;42.628;23.380;2022-08-02T11:22:47;94143.16;;;25.84;58.89
6694;BME280;3384;42.628;23.380;2022-08-02T11:25:34;94132.59;;;25.76;59.24
6694;BME280;3384;42.628;23.380;2022-08-02T11:28:08;94136.88;;;25.73;59.73
6694;BME280;3384;42.628;23.380;2022-08-02T11:30:37;94138.00;;;25.90;58.94
6694;BME280;3384;42.628;23.380;2022-08-02T11:33:05;94142.69;;;26.03;58.92
6694;BME280;3384;42.628;23.380;2022-08-02T11:35:46;94136.25;;;26.31;58.14
6694;BME280;3384;42.628;23.380;2022-08-02T11:38:15;94128.03;;;26.27;57.49
6694;BME280;3384;42.628;23.380;2022-08-02T11:40:45;94147.72;;;26.15;57.14
6694;BME280;3384;42.628;23.380;2022-08-02T11:43:20;94129.13;;;26.37;57.97
6694;BME280;3384;42.628;23.380;2022-08-02T11:45:49;94136.03;;;25.90;59.02
6694;BME280;3384;42.628;23.380;2022-08-02T11:48:33;94121.06;;;26.09;58.61
6694;BME280;3384;42.628;23.380;2022-08-02T11:51:06;94127.00;;;25.93;59.83
6694;BME280;3384;42.628;23.380;2022-08-02T11:53:40;94134.06;;;26.01;59.66
6694;BME280;3384;42.628;23.380;2022-08-02T11:56:16;94129.16;;;26.30;58.54
6694;BME280;3384;42.628;23.380;2022-08-02T11:59:00;94140.13;;;26.37;57.91
6694;BME280;3384;42.628;23.380;2022-08-02T12:01:43;94130.44;;;26.15;58.59
6694;BME280;3384;42.628;23.380;2022-08-02T12:04:16;94128.59;;;25.98;57.64
6694;BME280;3384;42.628;23.380;2022-08-02T12:06:44;94116.75;;;26.08;57.74
6694;BME280;3384;42.628;23.380;2022-08-02T12:09:18;94114.28;;;26.27;57.09
6694;BME280;3384;42.628;23.380;2022-08-02T12:11:49;94115.34;;;26.44;55.78
6694;BME280;3384;42.628;23.380;2022-08-02T12:14:16;94116.22;;;26.30;56.64
6694;BME280;3384;42.628;23.380;2022-08-02T12:16:44;94129.94;;;26.34;56.50
6694;BME280;3384;42.628;23.380;2022-08-02T12:19:28;94135.59;;;26.06;57.06
6694;BME280;3384;42.628;23.380;2022-08-02T12:22:13;94124.25;;;26.00;57.60
6694;BME280;3384;42.628;23.380;2022-08-02T12:24:41;94136.38;;;26.06;56.96
6694;BME280;3384;42.628;23.380;2022-08-02T12:27:26;94141.66;;;26.45;55.36
6694;BME280;3384;42.628;23.380;2022-08-02T12:29:58;94119.31;;;26.36;55.28
6694;BME280;3384;42.628;23.380;2022-08-02T12:32:25;94139.41;;;26.29;54.67
6694;BME280;3384;42.628;23.380;2022-08-02T12:35:03;94143.53;;;26.62;54.15
6694;BME280;3384;42.628;23.380;2022-08-02T12:37:31;94123.44;;;26.65;53.62
6694;BME280;3384;42.628;23.380;2022-08-02T12:39:58;94126.53;;;26.74;53.33
6694;BME280;3384;42.628;23.380;2022-08-02T12:42:47;94141.94;;;26.65;55.10
6694;BME280;3384;42.628;23.380;2022-08-02T12:45:15;94115.53;;;26.74;55.61
6694;BME280;3384;42.628;23.380;2022-08-02T12:47:46;94115.94;;;26.73;56.68
6694;BME280;3384;42.628;23.380;2022-08-02T12:50:17;94105.88;;;27.00;54.64
6694;BME280;3384;42.628;23.380;2022-08-02T12:52:45;94113.94;;;27.21;54.30
6694;BME280;3384;42.628;23.380;2022-08-02T12:55:17;94115.84;;;27.27;53.73
6694;BME280;3384;42.628;23.380;2022-08-02T12:57:53;94136.16;;;26.96;53.35
6694;BME280;3384;42.628;23.380;2022-08-02T13:00:27;94124.00;;;26.97;53.45
6694;BME280;3384;42.628;23.380;2022-08-02T13:02:54;94138.03;;;27.06;53.27
6694;BME280;3384;42.628;23.380;2022-08-02T13:05:22;94128.31;;;26.95;53.59
6694;BME280;3384;42.628;23.380;2022-08-02T13:07:49;94103.13;;;27.00;53.24
6694;BME280;3384;42.628;23.380;2022-08-02T13:10:17;94131.38;;;27.07;53.24
6694;BME280;3384;42.628;23.380;2022-08-02T13:12:44;94121.19;;;27.01;53.56
6694;BME280;3384;42.628;23.380;2022-08-02T13:15:13;94121.38;;;27.20;53.05
6694;BME280;3384;42.628;23.380;2022-08-02T13:17:40;94120.50;;;26.90;53.86
6694;BME280;3384;42.628;23.380;2022-08-02T13:20:08;94111.31;;;26.55;54.30
6694;BME280;3384;42.628;23.380;2022-08-02T13:22:36;94119.41;;;26.80;53.92
6694;BME280;3384;42.628;23.380;2022-08-02T13:25:04;94123.44;;;26.65;54.80
6694;BME280;3384;42.628;23.380;2022-08-02T13:27:31;94110.56;;;26.55;55.37